sensor_id;sensor_type;location;lat;lon;timestamp;pressure;altitude;pressure_sealevel;temperature;humidity
21096;BME280;10706;49.036;12.112;2023-04-16T00:00:07;97443.41;;;6.71;100.00
21096;BME280;10706;49.036;12.112;2023-04-16T00:02:33;97453.44;;;6.69;100.00
21096;BME280;10706;49.036;12.112;2023-04-16T00:04:59;97448.56;;;6.66;100.00
21096;BME280;10706;49.036;12.112;2023-04-16T00:07:24;97448.13;;;6.69;100.00
21096;BME280;10706;49.036;12.112;2023-04-16T00:09:50;97444.00;;;6.73;100.00
21096;BME280;10706;49.036;12.112;2023-04-16T00:12:16;97438.28;;;6.76;100.00
21096;BME280;10706;49.036;12.112;2023-04-16T00:14:41;97447.91;;;6.70;100.00
21096;BME280;10706;49.036;12.112;2023-04-16T00:17:08;97445.03;;;6.72;100.00
21096;BME280;10706;49.036;12.112;2023-04-16T00:19:34;97436.22;;;6.78;100.00
21096;BME280;10706;49.036;12.112;2023-04-16T00:22:00;97449.09;;;6.74;100.00
21096;BME280;10706;49.036;12.112;2023-04-16T00:24:26;97442.53;;;6.77;100.00
21096;BME280;10706;49.036;12.112;2023-04-16T00:26:52;97449.28;;;6.79;100.00
21096;BME280;10706;49.036;12.112;2023-04-16T00:29:18;97450.66;;;6.82;100.00
21096;BME280;10706;49.036;12.112;2023-04-16T00:31:43;97445.72;;;6.86;100.00
21096;BME280;10706;49.036;12.112;2023-04-16T00:34:09;97446.53;;;6.86;100.00
21096;BME280;10706;49.036;12.112;2023-04-16T00:36:35;97449.78;;;6.88;100.00
21096;BME280;10706;49.036;12.112;2023-04-16T00:39:01;97440.44;;;6.86;100.00
21096;BME280;10706;49.036;12.112;2023-04-16T00:41:26;97442.13;;;6.80;100.00
21096;BME280;10706;49.036;12.112;2023-04-16T00:43:52;97439.47;;;6.80;100.00
21096;BME280;10706;49.036;12.112;2023-04-16T00:46:18;97454.13;;;6.82;100.00
21096;BME280;10706;49.036;12.112;2023-04-16T00:48:46;97445.53;;;6.87;100.00
21096;BME280;10706;49.036;12.112;2023-04-16T00:51:13;97444.94;;;6.85;100.00
21096;BME280;10706;49.036;12.112;2023-04-16T00:53:39;97450.84;;;6.87;100.00
21096;BME280;10706;49.036;12.112;2023-04-16T00:56:06;97445.72;;;6.86;100.00
21096;BME280;10706;49.036;12.112;2023-04-16T00:58:33;97442.38;;;6.72;100.00
21096;BME280;10706;49.036;12.112;2023-04-16T01:01:00;97443.47;;;6.64;100.00
21096;BME280;10706;49.036;12.112;2023-04-16T01:03:45;97445.00;;;6.53;100.00
21096;BME280;10706;49.036;12.112;2023-04-16T01:06:11;97445.81;;;6.54;100.00
21096;BME280;10706;49.036;12.112;2023-04-16T01:08:37;97451.75;;;6.49;100.00
21096;BME280;10706;49.036;12.112;2023-04-16T01:11:03;97453.34;;;6.57;100.00
21096;BME280;10706;49.036;12.112;2023-04-16T01:13:30;97450.06;;;6.55;100.00
21096;BME280;10706;49.036;12.112;2023-04-16T01:15:56;97456.59;;;6.59;100.00
21096;BME280;10706;49.036;12.112;2023-04-16T01:18:22;97448.03;;;6.57;100.00
21096;BME280;10706;49.036;12.112;2023-04-16T01:20:49;97448.84;;;6.57;100.00
21096;BME280;10706;49.036;12.112;2023-04-16T01:23:16;97442.47;;;6.58;100.00
21096;BME280;10706;49.036;12.112;2023-04-16T01:25:45;97449.59;;;6.65;100.00
21096;BME280;10706;49.036;12.112;2023-04-16T01:28:11;97450.56;;;6.70;100.00
21096;BME280;10706;49.036;12.112;2023-04-16T01:30:37;97453.59;;;6.74;100.00
21096;BME280;10706;49.036;12.112;2023-04-16T01:33:04;97458.84;;;6.80;100.00
21096;BME280;10706;49.036;12.112;2023-04-16T01:35:30;97463.06;;;6.88;100.00
21096;BME280;10706;49.036;12.112;2023-04-16T01:37:56;97465.72;;;6.88;100.00
21096;BME280;10706;49.036;12.112;2023-04-16T01:40:22;97462.88;;;6.83;100.00
21096;BME280;10706;49.036;12.112;2023-04-16T01:42:47;97458.03;;;6.80;100.00
21096;BME280;10706;49.036;12.112;2023-04-16T01:45:13;97456.25;;;6.74;100.00
21096;BME280;10706;49.036;12.112;2023-04-16T01:47:39;97462.88;;;6.65;100.00
21096;BME280;10706;49.036;12.112;2023-04-16T01:50:06;97455.75;;;6.58;100.00
21096;BME280;10706;49.036;12.112;2023-04-16T01:52:32;97457.22;;;6.54;100.00
21096;BME280;10706;49.036;12.112;2023-04-16T01:54:57;97462.72;;;6.53;100.00
21096;BME280;10706;49.036;12.112;2023-04-16T01:57:23;97466.16;;;6.60;100.00
21096;BME280;10706;49.036;12.112;2023-04-16T01:59:49;97463.88;;;6.64;100.00
21096;BME280;10706;49.036;12.112;2023-04-16T02:02:15;97471.41;;;6.67;100.00
21096;BME280;10706;49.036;12.112;2023-04-16T02:04:44;97467.50;;;6.69;100.00
21096;BME280;10706;49.036;12.112;2023-04-16T02:07:11;97468.06;;;6.78;100.00
21096;BME280;10706;49.036;12.112;2023-04-16T02:09:38;97460.94;;;6.72;100.00
21096;BME280;10706;49.036;12.112;2023-04-16T02:12:05;97469.28;;;6.75;100.00
21096;BME280;10706;49.036;12.112;2023-04-16T02:14:32;97472.97;;;6.74;100.00
21096;BME280;10706;49.036;12.112;2023-04-16T02:16:58;97473.19;;;6.73;100.00
21096;BME280;10706;49.036;12.112;2023-04-16T02:19:24;97476.44;;;6.75;100.00
21096;BME280;10706;49.036;12.112;2023-04-16T02:21:51;97484.28;;;6.88;100.00
21096;BME280;10706;49.036;12.112;2023-04-16T02:24:18;97480.81;;;6.88;100.00
21096;BME280;10706;49.036;12.112;2023-04-16T02:26:44;97481.59;;;6.95;100.00
21096;BME280;10706;49.036;12.112;2023-04-16T02:29:10;97483.06;;;6.91;100.00
21096;BME280;10706;49.036;12.112;2023-04-16T02:31:36;97478.34;;;6.93;100.00
21096;BME280;10706;49.036;12.112;2023-04-16T02:34:02;97486.31;;;6.93;100.00
21096;BME280;10706;49.036;12.112;2023-04-16T02:36:28;97485.63;;;6.97;100.00
21096;BME280;10706;49.036;12.112;2023-04-16T02:38:54;97491.53;;;6.99;100.00
21096;BME280;10706;49.036;12.112;2023-04-16T02:41:19;97495.63;;;7.02;100.00
21096;BME280;10706;49.036;12.112;2023-04-16T02:43:45;97489.41;;;7.08;100.00
21096;BME280;10706;49.036;12.112;2023-04-16T02:46:11;97493.75;;;7.03;100.00
21096;BME280;10706;49.036;12.112;2023-04-16T02:48:37;97497.66;;;7.00;100.00
21096;BME280;10706;49.036;12.112;2023-04-16T02:51:03;97499.66;;;7.05;100.00
21096;BME280;10706;49.036;12.112;2023-04-16T02:53:28;97501.88;;;7.08;100.00
21096;BME280;10706;49.036;12.112;2023-04-16T02:55:54;97497.00;;;7.05;100.00
21096;BME280;10706;49.036;12.112;2023-04-16T02:58:23;97501.78;;;6.96;100.00
21096;BME280;10706;49.036;12.112;2023-04-16T03:00:49;97504.28;;;6.91;100.00
21096;BME280;10706;49.036;12.112;2023-04-16T03:03:15;97499.03;;;6.84;100.00
21096;BME280;10706;49.036;12.112;2023-04-16T03:05:41;97501.13;;;6.75;100.00
21096;BME280;10706;49.036;12.112;2023-04-16T03:08:07;97497.47;;;6.76;100.00
21096;BME280;10706;49.036;12.112;2023-04-16T03:10:33;97503.34;;;6.78;100.00
21096;BME280;10706;49.036;12.112;2023-04-16T03:13:02;97502.97;;;6.75;100.00
21096;BME280;10706;49.036;12.112;2023-04-16T03:15:29;97504.66;;;6.69;100.00
21096;BME280;10706;49.036;12.112;2023-04-16T03:17:55;97502.69;;;6.58;100.00
21096;BME280;10706;49.036;12.112;2023-04-16T03:20:21;97514.56;;;6.55;100.00
21096;BME280;10706;49.036;12.112;2023-04-16T03:22:48;97509.66;;;6.52;100.00
21096;BME280;10706;49.036;12.112;2023-04-16T03:25:14;97513.97;;;6.53;100.00
21096;BME280;10706;49.036;12.112;2023-04-16T03:27:39;97513.72;;;6.55;100.00
21096;BME280;10706;49.036;12.112;2023-04-16T03:30:07;97518.44;;;6.53;100.00
21096;BME280;10706;49.036;12.112;2023-04-16T03:32:33;97520.28;;;6.52;100.00
21096;BME280;10706;49.036;12.112;2023-04-16T03:34:59;97513.97;;;6.53;100.00
21096;BME280;10706;49.036;12.112;2023-04-16T03:37:25;97524.38;;;6.48;100.00
21096;BME280;10706;49.036;12.112;2023-04-16T03:39:50;97523.41;;;6.42;100.00
21096;BME280;10706;49.036;12.112;2023-04-16T03:42:16;97521.16;;;6.39;100.00
21096;BME280;10706;49.036;12.112;2023-04-16T03:44:42;97524.47;;;6.35;100.00
21096;BME280;10706;49.036;12.112;2023-04-16T03:47:08;97523.28;;;6.31;100.00
21096;BME280;10706;49.036;12.112;2023-04-16T03:49:33;97525.31;;;6.29;100.00
21096;BME280;10706;49.036;12.112;2023-04-16T03:51:59;97522.88;;;6.27;100.00
21096;BME280;10706;49.036;12.112;2023-04-16T03:54:25;97515.34;;;6.24;100.00
21096;BME280;10706;49.036;12.112;2023-04-16T03:56:51;97524.97;;;6.18;100.00
21096;BME280;10706;49.036;12.112;2023-04-16T03:59:17;97540.22;;;6.23;100.00
21096;BME280;10706;49.036;12.112;2023-04-16T04:01:43;97527.59;;;6.25;100.00
21096;BME280;10706;49.036;12.112;2023-04-16T04:04:09;97529.22;;;6.26;100.00
21096;BME280;10706;49.036;12.112;2023-04-16T04:06:35;97537.56;;;6.23;100.00
21096;BME280;10706;49.036;12.112;2023-04-16T04:09:01;97543.91;;;6.22;100.00
21096;BME280;10706;49.036;12.112;2023-04-16T04:11:26;97541.69;;;6.19;100.00
21096;BME280;10706;49.036;12.112;2023-04-16T04:13:52;97545.97;;;6.20;100.00
21096;BME280;10706;49.036;12.112;2023-04-16T04:16:18;97541.69;;;6.19;100.00
21096;BME280;10706;49.036;12.112;2023-04-16T04:18:44;97537.63;;;6.16;100.00
21096;BME280;10706;49.036;12.112;2023-04-16T04:21:10;97548.44;;;6.15;100.00
21096;BME280;10706;49.036;12.112;2023-04-16T04:23:36;97552.28;;;6.19;100.00
21096;BME280;10706;49.036;12.112;2023-04-16T04:26:02;97551.00;;;6.28;100.00
21096;BME280;10706;49.036;12.112;2023-04-16T04:28:31;97550.94;;;6.41;100.00
21096;BME280;10706;49.036;12.112;2023-04-16T04:30:58;97557.63;;;6.51;100.00
21096;BME280;10706;49.036;12.112;2023-04-16T04:33:27;97559.66;;;6.55;100.00
21096;BME280;10706;49.036;12.112;2023-04-16T04:35:53;97562.69;;;6.59;100.00
21096;BME280;10706;49.036;12.112;2023-04-16T04:38:20;97563.88;;;6.63;100.00
21096;BME280;10706;49.036;12.112;2023-04-16T04:40:50;97562.09;;;6.57;100.00
21096;BME280;10706;49.036;12.112;2023-04-16T04:43:17;97568.03;;;6.52;100.00
21096;BME280;10706;49.036;12.112;2023-04-16T04:45:43;97565.78;;;6.49;100.00
21096;BME280;10706;49.036;12.112;2023-04-16T04:48:09;97568.38;;;6.63;100.00
21096;BME280;10706;49.036;12.112;2023-04-16T04:50:36;97569.09;;;6.76;100.00
21096;BME280;10706;49.036;12.112;2023-04-16T04:53:01;97572.91;;;6.87;100.00
21096;BME280;10706;49.036;12.112;2023-04-16T04:55:29;97581.38;;;7.03;100.00
21096;BME280;10706;49.036;12.112;2023-04-16T04:57:54;97577.94;;;6.95;100.00
21096;BME280;10706;49.036;12.112;2023-04-16T05:00:20;97576.56;;;6.86;100.00
21096;BME280;10706;49.036;12.112;2023-04-16T05:02:46;97584.97;;;6.83;100.00
21096;BME280;10706;49.036;12.112;2023-04-16T05:05:12;97591.25;;;6.89;100.00
21096;BME280;10706;49.036;12.112;2023-04-16T05:07:38;97586.59;;;6.84;100.00
21096;BME280;10706;49.036;12.112;2023-04-16T05:10:04;97592.72;;;6.85;100.00
21096;BME280;10706;49.036;12.112;2023-04-16T05:12:29;97591.69;;;6.86;100.00
21096;BME280;10706;49.036;12.112;2023-04-16T05:14:55;97590.41;;;6.95;100.00
21096;BME280;10706;49.036;12.112;2023-04-16T05:17:21;97596.31;;;6.97;100.00
21096;BME280;10706;49.036;12.112;2023-04-16T05:19:46;97599.97;;;6.96;100.00
21096;BME280;10706;49.036;12.112;2023-04-16T05:22:12;97601.41;;;6.98;100.00
21096;BME280;10706;49.036;12.112;2023-04-16T05:24:38;97605.28;;;6.96;100.00
21096;BME280;10706;49.036;12.112;2023-04-16T05:27:04;97605.28;;;6.96;100.00
21096;BME280;10706;49.036;12.112;2023-04-16T05:29:29;97606.72;;;6.98;100.00
21096;BME280;10706;49.036;12.112;2023-04-16T05:31:55;97608.28;;;7.06;100.00
21096;BME280;10706;49.036;12.112;2023-04-16T05:34:21;97612.63;;;7.00;100.00
21096;BME280;10706;49.036;12.112;2023-04-16T05:36:47;97617.34;;;6.98;100.00
21096;BME280;10706;49.036;12.112;2023-04-16T05:39:12;97617.47;;;7.04;100.00
21096;BME280;10706;49.036;12.112;2023-04-16T05:41:38;97620.28;;;7.15;100.00
21096;BME280;10706;49.036;12.112;2023-04-16T05:44:04;97623.22;;;7.32;100.00
21096;BME280;10706;49.036;12.112;2023-04-16T05:46:30;97627.25;;;7.35;100.00
21096;BME280;10706;49.036;12.112;2023-04-16T05:48:55;97629.41;;;7.45;100.00
21096;BME280;10706;49.036;12.112;2023-04-16T05:51:21;97620.59;;;7.51;100.00
21096;BME280;10706;49.036;12.112;2023-04-16T05:53:49;97630.06;;;7.65;100.00
21096;BME280;10706;49.036;12.112;2023-04-16T05:56:15;97630.00;;;7.72;100.00
21096;BME280;10706;49.036;12.112;2023-04-16T05:58:40;97637.09;;;7.78;100.00
21096;BME280;10706;49.036;12.112;2023-04-16T06:01:06;97636.06;;;7.79;100.00
21096;BME280;10706;49.036;12.112;2023-04-16T06:03:32;97643.16;;;7.85;100.00
21096;BME280;10706;49.036;12.112;2023-04-16T06:06:00;97641.63;;;7.96;100.00
21096;BME280;10706;49.036;12.112;2023-04-16T06:08:26;97636.75;;;7.93;100.00
21096;BME280;10706;49.036;12.112;2023-04-16T06:10:52;97648.09;;;7.82;98.36
21096;BME280;10706;49.036;12.112;2023-04-16T06:13:18;97641.16;;;7.81;99.27
21096;BME280;10706;49.036;12.112;2023-04-16T06:15:43;97647.72;;;7.78;99.86
21096;BME280;10706;49.036;12.112;2023-04-16T06:18:09;97646.41;;;7.87;99.06
21096;BME280;10706;49.036;12.112;2023-04-16T06:20:35;97646.19;;;7.89;99.25
21096;BME280;10706;49.036;12.112;2023-04-16T06:23:01;97647.44;;;8.05;98.05
21096;BME280;10706;49.036;12.112;2023-04-16T06:25:27;97640.59;;;8.15;97.66
21096;BME280;10706;49.036;12.112;2023-04-16T06:27:52;97648.94;;;8.19;97.56
21096;BME280;10706;49.036;12.112;2023-04-16T06:30:18;97650.19;;;8.35;96.18
21096;BME280;10706;49.036;12.112;2023-04-16T06:32:44;97642.78;;;8.37;96.04
21096;BME280;10706;49.036;12.112;2023-04-16T06:35:11;97646.81;;;8.46;96.49
21096;BME280;10706;49.036;12.112;2023-04-16T06:37:37;97650.94;;;8.42;95.65
21096;BME280;10706;49.036;12.112;2023-04-16T06:40:04;97656.09;;;8.37;95.98
21096;BME280;10706;49.036;12.112;2023-04-16T06:42:30;97658.03;;;8.30;95.45
21096;BME280;10706;49.036;12.112;2023-04-16T06:44:56;97660.00;;;8.34;95.05
21096;BME280;10706;49.036;12.112;2023-04-16T06:47:22;97656.09;;;8.37;95.41
21096;BME280;10706;49.036;12.112;2023-04-16T06:49:48;97649.91;;;8.62;95.55
21096;BME280;10706;49.036;12.112;2023-04-16T06:52:13;97649.53;;;8.88;94.61
21096;BME280;10706;49.036;12.112;2023-04-16T06:54:39;97652.75;;;9.21;93.38
21096;BME280;10706;49.036;12.112;2023-04-16T06:57:05;97649.94;;;9.69;89.78
21096;BME280;10706;49.036;12.112;2023-04-16T06:59:31;97658.59;;;10.36;85.54
21096;BME280;10706;49.036;12.112;2023-04-16T07:01:57;97661.38;;;10.41;83.61
21096;BME280;10706;49.036;12.112;2023-04-16T07:04:24;97662.25;;;10.58;84.54
21096;BME280;10706;49.036;12.112;2023-04-16T07:06:51;97660.97;;;10.61;83.63
21096;BME280;10706;49.036;12.112;2023-04-16T07:09:16;97665.22;;;10.33;81.20
21096;BME280;10706;49.036;12.112;2023-04-16T07:11:43;97663.56;;;10.44;82.86
21096;BME280;10706;49.036;12.112;2023-04-16T07:14:09;97669.06;;;10.66;78.79
21096;BME280;10706;49.036;12.112;2023-04-16T07:16:35;97665.31;;;10.26;81.67
21096;BME280;10706;49.036;12.112;2023-04-16T07:19:02;97667.66;;;10.11;83.22
21096;BME280;10706;49.036;12.112;2023-04-16T07:21:28;97670.09;;;10.12;81.93
21096;BME280;10706;49.036;12.112;2023-04-16T07:23:53;97669.97;;;10.07;83.66
21096;BME280;10706;49.036;12.112;2023-04-16T07:26:19;97676.13;;;9.96;84.38
21096;BME280;10706;49.036;12.112;2023-04-16T07:28:45;97675.91;;;9.86;83.73
21096;BME280;10706;49.036;12.112;2023-04-16T07:31:11;97673.94;;;9.93;84.47
21096;BME280;10706;49.036;12.112;2023-04-16T07:33:37;97676.44;;;10.11;83.77
21096;BME280;10706;49.036;12.112;2023-04-16T07:36:03;97679.13;;;10.11;81.57
21096;BME280;10706;49.036;12.112;2023-04-16T07:38:28;97676.72;;;9.75;82.71
21096;BME280;10706;49.036;12.112;2023-04-16T07:40:54;97677.50;;;9.87;82.85
21096;BME280;10706;49.036;12.112;2023-04-16T07:43:21;97678.78;;;10.20;83.51
21096;BME280;10706;49.036;12.112;2023-04-16T07:45:46;97681.50;;;10.60;80.12
21096;BME280;10706;49.036;12.112;2023-04-16T07:48:12;97681.88;;;10.52;79.56
21096;BME280;10706;49.036;12.112;2023-04-16T07:50:38;97684.50;;;10.64;78.88
21096;BME280;10706;49.036;12.112;2023-04-16T07:53:04;97679.16;;;10.64;78.50
21096;BME280;10706;49.036;12.112;2023-04-16T07:55:32;97687.34;;;10.45;79.54
21096;BME280;10706;49.036;12.112;2023-04-16T07:57:57;97689.84;;;10.76;78.14
21096;BME280;10706;49.036;12.112;2023-04-16T08:00:23;97693.25;;;10.59;78.37
21096;BME280;10706;49.036;12.112;2023-04-16T08:02:49;97693.63;;;10.51;78.35
21096;BME280;10706;49.036;12.112;2023-04-16T08:05:14;97697.59;;;10.37;80.21
21096;BME280;10706;49.036;12.112;2023-04-16T08:07:41;97693.03;;;10.25;78.67
21096;BME280;10706;49.036;12.112;2023-04-16T08:10:07;97695.16;;;10.35;77.39
21096;BME280;10706;49.036;12.112;2023-04-16T08:12:33;97701.84;;;10.26;76.53
21096;BME280;10706;49.036;12.112;2023-04-16T08:14:59;97703.03;;;10.06;78.73
21096;BME280;10706;49.036;12.112;2023-04-16T08:17:25;97713.47;;;10.20;77.71
21096;BME280;10706;49.036;12.112;2023-04-16T08:19:52;97707.66;;;10.23;78.77
21096;BME280;10706;49.036;12.112;2023-04-16T08:22:18;97702.56;;;10.33;79.42
21096;BME280;10706;49.036;12.112;2023-04-16T08:24:44;97712.09;;;10.41;79.34
21096;BME280;10706;49.036;12.112;2023-04-16T08:27:10;97708.91;;;10.56;76.91
21096;BME280;10706;49.036;12.112;2023-04-16T08:29:36;97714.50;;;10.54;76.45
21096;BME280;10706;49.036;12.112;2023-04-16T08:32:02;97723.31;;;10.55;77.78
21096;BME280;10706;49.036;12.112;2023-04-16T08:34:28;97715.78;;;10.52;77.30
21096;BME280;10706;49.036;12.112;2023-04-16T08:36:53;97722.63;;;10.24;77.18
21096;BME280;10706;49.036;12.112;2023-04-16T08:39:20;97728.47;;;10.33;78.23
21096;BME280;10706;49.036;12.112;2023-04-16T08:41:46;97723.00;;;10.51;77.83
21096;BME280;10706;49.036;12.112;2023-04-16T08:44:34;97728.63;;;10.66;77.99
21096;BME280;10706;49.036;12.112;2023-04-16T08:47:07;97734.63;;;10.85;80.10
21096;BME280;10706;49.036;12.112;2023-04-16T08:49:35;97736.56;;;10.90;77.30
21096;BME280;10706;49.036;12.112;2023-04-16T08:52:08;97740.31;;;10.89;75.98
21096;BME280;10706;49.036;12.112;2023-04-16T08:55:07;97746.75;;;11.05;75.85
21096;BME280;10706;49.036;12.112;2023-04-16T08:57:49;97740.25;;;11.01;73.16
21096;BME280;10706;49.036;12.112;2023-04-16T09:00:18;97737.88;;;11.16;74.05
21096;BME280;10706;49.036;12.112;2023-04-16T09:02:44;97739.00;;;11.20;71.52
21096;BME280;10706;49.036;12.112;2023-04-16T09:05:14;97751.84;;;11.35;69.82
21096;BME280;10706;49.036;12.112;2023-04-16T09:07:44;97753.47;;;11.82;69.42
21096;BME280;10706;49.036;12.112;2023-04-16T09:10:11;97750.69;;;11.60;68.77
21096;BME280;10706;49.036;12.112;2023-04-16T09:12:41;97758.47;;;11.78;68.87
21096;BME280;10706;49.036;12.112;2023-04-16T09:15:09;97754.75;;;11.79;70.30
21096;BME280;10706;49.036;12.112;2023-04-16T09:17:38;97758.03;;;11.98;68.01
21096;BME280;10706;49.036;12.112;2023-04-16T09:20:06;97762.09;;;12.01;66.88
21096;BME280;10706;49.036;12.112;2023-04-16T09:22:34;97763.56;;;11.46;66.95
21096;BME280;10706;49.036;12.112;2023-04-16T09:25:00;97767.31;;;11.04;69.23
21096;BME280;10706;49.036;12.112;2023-04-16T09:27:26;97768.63;;;10.90;71.26
21096;BME280;10706;49.036;12.112;2023-04-16T09:29:52;97766.59;;;10.68;72.40
21096;BME280;10706;49.036;12.112;2023-04-16T09:32:27;97769.69;;;10.77;71.82
21096;BME280;10706;49.036;12.112;2023-04-16T09:34:59;97771.38;;;10.66;71.88
21096;BME280;10706;49.036;12.112;2023-04-16T09:37:30;97773.69;;;11.03;73.79
21096;BME280;10706;49.036;12.112;2023-04-16T09:40:03;97772.03;;;10.85;73.98
21096;BME280;10706;49.036;12.112;2023-04-16T09:42:35;97768.00;;;11.12;73.11
21096;BME280;10706;49.036;12.112;2023-04-16T09:45:02;97768.56;;;11.42;71.22
21096;BME280;10706;49.036;12.112;2023-04-16T09:47:42;97774.53;;;11.78;70.45
21096;BME280;10706;49.036;12.112;2023-04-16T09:50:09;97776.69;;;12.27;69.44
21096;BME280;10706;49.036;12.112;2023-04-16T09:52:39;97779.03;;;12.06;67.34
21096;BME280;10706;49.036;12.112;2023-04-16T09:55:05;97773.66;;;12.23;68.23
21096;BME280;10706;49.036;12.112;2023-04-16T09:57:31;97778.31;;;11.65;68.99
21096;BME280;10706;49.036;12.112;2023-04-16T10:00:05;97778.31;;;11.94;70.21
21096;BME280;10706;49.036;12.112;2023-04-16T10:02:32;97772.97;;;11.65;71.47
21096;BME280;10706;49.036;12.112;2023-04-16T10:05:01;97784.56;;;11.25;74.08
21096;BME280;10706;49.036;12.112;2023-04-16T10:07:35;97780.97;;;10.79;76.48
21096;BME280;10706;49.036;12.112;2023-04-16T10:10:02;97782.22;;;10.88;76.36
21096;BME280;10706;49.036;12.112;2023-04-16T10:12:29;97783.81;;;11.01;76.65
21096;BME280;10706;49.036;12.112;2023-04-16T10:14:57;97783.00;;;11.01;76.40
21096;BME280;10706;49.036;12.112;2023-04-16T10:17:23;97788.63;;;11.28;75.84
21096;BME280;10706;49.036;12.112;2023-04-16T10:19:50;97789.22;;;11.18;76.11
21096;BME280;10706;49.036;12.112;2023-04-16T10:22:15;97785.56;;;11.36;75.25
21096;BME280;10706;49.036;12.112;2023-04-16T10:24:41;97785.78;;;11.06;74.18
21096;BME280;10706;49.036;12.112;2023-04-16T10:27:07;97789.94;;;11.14;73.15
21096;BME280;10706;49.036;12.112;2023-04-16T10:29:34;97786.88;;;11.22;72.54
21096;BME280;10706;49.036;12.112;2023-04-16T10:32:00;97786.75;;;11.57;74.32
21096;BME280;10706;49.036;12.112;2023-04-16T10:34:27;97790.72;;;12.00;72.94
21096;BME280;10706;49.036;12.112;2023-04-16T10:36:54;97788.34;;;11.87;70.74
21096;BME280;10706;49.036;12.112;2023-04-16T10:39:26;97789.72;;;11.90;70.76
21096;BME280;10706;49.036;12.112;2023-04-16T10:44:33;97786.47;;;12.38;68.46
21096;BME280;10706;49.036;12.112;2023-04-16T10:46:58;97788.75;;;12.47;67.08
21096;BME280;10706;49.036;12.112;2023-04-16T10:49:25;97796.47;;;12.43;66.46
21096;BME280;10706;49.036;12.112;2023-04-16T10:52:19;97794.03;;;12.80;67.36
21096;BME280;10706;49.036;12.112;2023-04-16T10:54:46;97797.09;;;13.11;64.25
21096;BME280;10706;49.036;12.112;2023-04-16T10:57:18;97802.63;;;13.27;66.34
21096;BME280;10706;49.036;12.112;2023-04-16T10:59:45;97794.91;;;13.52;66.13
21096;BME280;10706;49.036;12.112;2023-04-16T11:02:15;97796.88;;;13.35;67.04
21096;BME280;10706;49.036;12.112;2023-04-16T11:04:43;97806.06;;;13.00;66.91
21096;BME280;10706;49.036;12.112;2023-04-16T11:07:18;97807.19;;;13.04;65.10
21096;BME280;10706;49.036;12.112;2023-04-16T11:10:04;97801.44;;;13.17;65.52
21096;BME280;10706;49.036;12.112;2023-04-16T11:12:39;97802.34;;;13.45;64.62
21096;BME280;10706;49.036;12.112;2023-04-16T11:15:08;97797.44;;;13.64;64.82
21096;BME280;10706;49.036;12.112;2023-04-16T11:17:49;97793.66;;;13.92;63.51
21096;BME280;10706;49.036;12.112;2023-04-16T11:20:18;97800.25;;;14.44;61.64
21096;BME280;10706;49.036;12.112;2023-04-16T11:22:44;97793.19;;;14.33;62.74
21096;BME280;10706;49.036;12.112;2023-04-16T11:25:10;97793.91;;;14.23;61.93
21096;BME280;10706;49.036;12.112;2023-04-16T11:27:36;97796.06;;;14.21;62.03
21096;BME280;10706;49.036;12.112;2023-04-16T11:30:05;97799.19;;;14.88;60.13
21096;BME280;10706;49.036;12.112;2023-04-16T11:32:34;97793.69;;;14.67;57.34
21096;BME280;10706;49.036;12.112;2023-04-16T11:35:17;97798.13;;;14.94;57.55
21096;BME280;10706;49.036;12.112;2023-04-16T11:37:44;97794.63;;;14.46;58.33
21096;BME280;10706;49.036;12.112;2023-04-16T11:40:10;97798.09;;;14.84;58.65
21096;BME280;10706;49.036;12.112;2023-04-16T11:42:38;97802.41;;;14.90;59.41
21096;BME280;10706;49.036;12.112;2023-04-16T11:45:09;97799.97;;;15.57;56.72
21096;BME280;10706;49.036;12.112;2023-04-16T11:47:47;97804.22;;;15.32;56.12
21096;BME280;10706;49.036;12.112;2023-04-16T11:50:27;97800.25;;;14.92;56.41
21096;BME280;10706;49.036;12.112;2023-04-16T11:52:56;97808.38;;;14.97;55.58
21096;BME280;10706;49.036;12.112;2023-04-16T11:55:27;97809.41;;;14.48;56.49
21096;BME280;10706;49.036;12.112;2023-04-16T11:57:53;97805.59;;;14.07;57.24
21096;BME280;10706;49.036;12.112;2023-04-16T12:00:19;97804.03;;;14.48;57.21
21096;BME280;10706;49.036;12.112;2023-04-16T12:02:50;97813.41;;;14.46;58.66
21096;BME280;10706;49.036;12.112;2023-04-16T12:05:36;97807.00;;;14.52;58.00
21096;BME280;10706;49.036;12.112;2023-04-16T12:08:08;97811.75;;;14.39;56.20
21096;BME280;10706;49.036;12.112;2023-04-16T12:10:37;97800.03;;;14.18;56.70
21096;BME280;10706;49.036;12.112;2023-04-16T12:13:17;97812.88;;;14.11;57.22
21096;BME280;10706;49.036;12.112;2023-04-16T12:15:47;97809.09;;;14.45;58.52
21096;BME280;10706;49.036;12.112;2023-04-16T12:18:14;97803.56;;;15.04;56.52
21096;BME280;10706;49.036;12.112;2023-04-16T12:20:42;97806.31;;;15.20;55.01
21096;BME280;10706;49.036;12.112;2023-04-16T12:23:20;97807.44;;;15.34;55.77
21096;BME280;10706;49.036;12.112;2023-04-16T12:25:46;97808.81;;;15.42;54.65
21096;BME280;10706;49.036;12.112;2023-04-16T12:28:14;97808.69;;;15.06;56.79
21096;BME280;10706;49.036;12.112;2023-04-16T12:30:50;97818.84;;;14.51;58.42
21096;BME280;10706;49.036;12.112;2023-04-16T12:33:18;97823.38;;;14.50;57.50
21096;BME280;10706;49.036;12.112;2023-04-16T12:35:45;97826.03;;;13.80;62.21
21096;BME280;10706;49.036;12.112;2023-04-16T12:38:11;97820.00;;;12.58;66.67
21096;BME280;10706;49.036;12.112;2023-04-16T12:40:39;97821.28;;;12.55;67.45
21096;BME280;10706;49.036;12.112;2023-04-16T12:43:06;97818.94;;;11.91;68.96
21096;BME280;10706;49.036;12.112;2023-04-16T12:45:33;97812.72;;;11.74;69.22
21096;BME280;10706;49.036;12.112;2023-04-16T12:47:59;97820.09;;;11.38;71.31
21096;BME280;10706;49.036;12.112;2023-04-16T12:50:25;97822.38;;;11.46;69.81
21096;BME280;10706;49.036;12.112;2023-04-16T12:52:50;97822.94;;;11.48;70.86